^^
Meteo Knjazevac Station Historical Data
Daily Summary for September 2, 2021 Units:  Metric    English   Both
Daily Weekly Monthly Yearly Custom
  High: Low: Average:
Temperature: 6.3 °C 3.2 °C 4.7 °C
Dew Point: 4.4 °C 1.8 °C 2.9 °C
Humidity: 91% 86% 88%
Wind Speed: 4.8km/h 0km/h 0.6km/h
Wind Gust: 8km/h - -
Wind- - WNW
Pressure: 1026.6 hPa 1026 hPa -
Precipitation: 0 mm    
Historical Graphs
 
 
Tabular Data for September 2, 2021
Time Temperature Dew Point Pressure Wind Wind Speed Wind Gust Humidity Rainfall Rate (Hourly) solar Conditions
00:00 6.3 °C 4.1 °C 1026.6 hPa Calm   4.8 km/h 86% 0 mm 0 W/m2
00:10 6.3 °C 4.4 °C 1026.6 hPa Calm   1.6 km/h 88% 0 mm 0 W/m2
00:20 6.2 °C 4.1 °C 1026.6 hPa Calm   1.6 km/h 86% 0 mm 0 W/m2
00:30 6 °C 4 °C 1026.6 hPa Calm   4.8 km/h 87% 0 mm 0 W/m2
00:40 5.9 °C 4.1 °C 1026.6 hPa Calm   3.2 km/h 88% 0 mm 0 W/m2
00:50 5.8 °C 3.8 °C 1026.6 hPa Calm   1.6 km/h 87% 0 mm 0 W/m2
01:00 5.7 °C 3.9 °C 1026.6 hPa Calm   3.2 km/h 88% 0 mm 0 W/m2
01:10 5.6 °C 3.4 °C 1026.3 hPa Calm   3.2 km/h 86% 0 mm 0 W/m2
01:20 5.3 °C 3.2 °C 1026.6 hPa Calm     86% 0 mm 0 W/m2
01:30 5.2 °C 3.2 °C 1026.3 hPa Calm   3.2 km/h 87% 0 mm 0 W/m2
01:40 5.1 °C 3.4 °C 1026.6 hPa SSE 1.6 km/h 4.8 km/h 89% 0 mm 0 W/m2
01:50 5.1 °C 3.2 °C 1026.3 hPa Calm   4.8 km/h 88% 0 mm 0 W/m2
02:00 4.9 °C 3.1 °C 1026.3 hPa Calm   3.2 km/h 88% 0 mm 0 W/m2
02:10 4.7 °C 3.1 °C 1026.3 hPa Calm   3.2 km/h 89% 0 mm 0 W/m2
02:20 4.6 °C 2.9 °C 1026.3 hPa NW 1.6 km/h 3.2 km/h 89% 0 mm 0 W/m2
02:30 4.4 °C 2.6 °C 1026 hPa WNW 1.6 km/h 3.2 km/h 88% 0 mm 0 W/m2
02:40 4.1 °C 2.3 °C 1026 hPa WNW 1.6 km/h 3.2 km/h 88% 0 mm 0 W/m2
02:50 3.8 °C 2 °C 1026 hPa WNW 1.6 km/h 3.2 km/h 88% 0 mm 0 W/m2
03:00 3.7 °C 2 °C 1026 hPa NW 1.6 km/h 3.2 km/h 89% 0 mm 0 W/m2
03:10 3.5 °C 1.8 °C 1026 hPa West 4.8 km/h 8 km/h 89% 0 mm 0 W/m2
03:20 3.4 °C 1.9 °C 1026 hPa West 1.6 km/h 6.4 km/h 90% 0 mm 0 W/m2
03:30 3.3 °C 1.8 °C 1026 hPa Calm   3.2 km/h 90% 0 mm 0 W/m2
03:40 3.3 °C 1.9 °C 1026 hPa Calm   3.2 km/h 91% 0 mm 0 W/m2
03:50 3.3 °C 1.9 °C 1026 hPa Calm   3.2 km/h 91% 0 mm 0 W/m2
04:00 3.2 °C 1.9 °C 1026 hPa NNW 1.6 km/h 3.2 km/h 91% 0 mm 0 W/m2
Knjazevac, Serbia
Compliments of Weather Underground - 2 mb